createdAt,value
2018-07-15T00:00:19.768Z,1.80
2018-07-15T00:02:53.181Z,1.30
2018-07-15T00:05:26.580Z,1.50
2018-07-15T00:08:00.044Z,1.82
2018-07-15T00:10:42.707Z,1.52
2018-07-15T00:13:16.167Z,1.67
2018-07-15T00:15:49.618Z,2.80
2018-07-15T00:18:23.031Z,1.52
2018-07-15T00:20:56.416Z,1.40
2018-07-15T00:23:29.811Z,1.65
2018-07-15T00:26:03.237Z,1.43
2018-07-15T00:28:36.618Z,1.80
2018-07-15T00:31:10.041Z,1.47
2018-07-15T00:33:43.434Z,1.52
2018-07-15T00:36:16.899Z,1.50
2018-07-15T00:38:50.279Z,1.80
2018-07-15T00:41:23.811Z,1.77
2018-07-15T00:43:57.191Z,3.75
2018-07-15T00:46:30.601Z,1.55
2018-07-15T00:49:03.974Z,1.70
2018-07-15T00:51:37.384Z,1.75
2018-07-15T00:54:10.803Z,1.70
2018-07-15T00:56:44.259Z,1.67
2018-07-15T00:59:17.642Z,1.60
2018-07-15T01:01:51.049Z,1.95
2018-07-15T01:04:24.463Z,1.50
2018-07-15T01:06:57.861Z,1.75
2018-07-15T01:09:31.335Z,1.70
2018-07-15T01:12:04.785Z,1.50
2018-07-15T01:14:38.303Z,1.67
2018-07-15T01:17:11.754Z,2.20
2018-07-15T01:19:45.135Z,2.57
2018-07-15T01:22:18.536Z,1.60
2018-07-15T01:24:51.887Z,1.93
2018-07-15T01:27:25.508Z,1.87
2018-07-15T01:29:58.899Z,4.40
2018-07-15T01:32:32.295Z,1.57
2018-07-15T01:35:05.672Z,1.50
2018-07-15T01:37:39.059Z,1.50
2018-07-15T01:40:12.440Z,2.00
2018-07-15T01:42:46.097Z,1.70
2018-07-15T01:45:19.455Z,1.83
2018-07-15T01:47:52.859Z,3.53
2018-07-15T01:50:26.277Z,1.60
2018-07-15T01:52:59.736Z,1.60
2018-07-15T01:55:33.236Z,3.00
2018-07-15T01:58:06.624Z,1.90
2018-07-15T02:00:39.992Z,1.97
2018-07-15T02:03:13.385Z,2.73
2018-07-15T02:05:46.815Z,1.60
2018-07-15T02:08:20.232Z,3.77
2018-07-15T02:10:53.600Z,1.93
2018-07-15T02:13:26.991Z,1.90
2018-07-15T02:16:00.400Z,1.73
2018-07-15T02:18:33.820Z,1.80
2018-07-15T02:21:07.310Z,1.93
2018-07-15T02:23:40.772Z,2.90
2018-07-15T02:26:14.245Z,1.90
2018-07-15T02:28:47.700Z,1.60
2018-07-15T02:31:21.098Z,1.50
2018-07-15T02:33:54.541Z,2.40
2018-07-15T02:36:27.968Z,1.70
2018-07-15T02:39:02.425Z,2.07
2018-07-15T02:41:35.791Z,2.00
2018-07-15T02:44:09.280Z,1.83
2018-07-15T02:46:42.665Z,2.00
2018-07-15T02:49:16.171Z,1.80
2018-07-15T02:51:49.652Z,1.90
2018-07-15T02:54:23.127Z,1.60
2018-07-15T02:56:56.523Z,2.00
2018-07-15T02:59:29.948Z,1.93
2018-07-15T03:02:03.469Z,2.00
2018-07-15T03:04:36.872Z,1.67
2018-07-15T03:07:10.252Z,1.60
2018-07-15T03:09:43.732Z,1.80
2018-07-15T03:12:17.388Z,1.90
2018-07-15T03:14:50.817Z,1.83
2018-07-15T03:17:24.329Z,2.13
2018-07-15T03:19:57.677Z,1.60
2018-07-15T03:22:31.171Z,1.90
2018-07-15T03:25:04.600Z,2.00
2018-07-15T03:27:38.059Z,2.97
2018-07-15T03:30:11.505Z,1.50
2018-07-15T03:32:44.936Z,1.70
2018-07-15T03:35:18.414Z,1.70
2018-07-15T03:37:52.043Z,1.70
2018-07-15T03:40:25.502Z,1.40
2018-07-15T03:42:58.902Z,2.00
2018-07-15T03:45:32.309Z,2.17
2018-07-15T03:48:05.851Z,2.30
2018-07-15T03:50:39.219Z,1.80
2018-07-15T03:53:12.627Z,2.27
2018-07-15T03:55:46.007Z,2.00
2018-07-15T03:58:19.417Z,2.57
2018-07-15T04:00:52.875Z,3.70
2018-07-15T04:03:26.245Z,1.97
2018-07-15T04:05:59.657Z,2.27
2018-07-15T04:08:33.118Z,2.50
2018-07-15T04:11:06.514Z,2.63
2018-07-15T04:13:39.928Z,2.83
2018-07-15T04:16:13.307Z,3.10
2018-07-15T04:18:46.755Z,2.63
2018-07-15T04:21:20.128Z,2.97
2018-07-15T04:23:53.551Z,2.80
2018-07-15T04:26:26.951Z,2.30
2018-07-15T04:29:00.344Z,2.43
2018-07-15T04:31:33.736Z,2.50
2018-07-15T04:34:07.136Z,2.47
2018-07-15T04:36:40.487Z,2.70
2018-07-15T04:39:13.897Z,2.53
2018-07-15T04:41:47.291Z,3.43
2018-07-15T04:44:20.668Z,2.43
2018-07-15T04:46:54.039Z,2.47
2018-07-15T04:49:27.432Z,2.33
2018-07-15T04:52:00.846Z,2.02
2018-07-15T04:54:34.237Z,2.27
2018-07-15T04:57:07.639Z,2.47
2018-07-15T04:59:41.099Z,2.92
2018-07-15T05:02:14.449Z,2.00
2018-07-15T05:04:47.896Z,2.30
2018-07-15T05:07:21.342Z,2.35
2018-07-15T05:09:54.739Z,1.98
2018-07-15T05:12:28.173Z,2.10
2018-07-15T05:15:01.582Z,2.70
2018-07-15T05:17:35.011Z,2.27
2018-07-15T05:20:08.417Z,2.10
2018-07-15T05:22:41.828Z,2.20
2018-07-15T05:25:15.306Z,2.30
2018-07-15T05:27:48.672Z,2.37
2018-07-15T05:30:22.076Z,2.08
2018-07-15T05:32:55.439Z,2.20
2018-07-15T05:35:28.874Z,2.17
2018-07-15T05:38:02.249Z,2.10
2018-07-15T05:40:35.698Z,2.42
2018-07-15T05:43:09.220Z,2.35
2018-07-15T05:45:42.641Z,1.90
2018-07-15T05:48:16.081Z,2.42
2018-07-15T05:50:49.489Z,2.60
2018-07-15T05:53:22.869Z,2.62
2018-07-15T05:55:56.272Z,3.08
2018-07-15T05:58:29.639Z,6.08
2018-07-15T06:01:03.055Z,4.12
2018-07-15T06:03:36.478Z,3.30
2018-07-15T06:06:09.922Z,3.52
2018-07-15T06:08:43.292Z,3.15
2018-07-15T06:11:16.688Z,3.15
2018-07-15T06:13:50.140Z,3.67
2018-07-15T06:16:23.607Z,3.27
2018-07-15T06:18:57.012Z,2.87
2018-07-15T06:21:30.512Z,3.30
2018-07-15T06:24:03.913Z,3.30
2018-07-15T06:26:37.389Z,3.50
2018-07-15T06:29:10.773Z,3.60
2018-07-15T06:31:44.190Z,3.10
2018-07-15T06:34:17.594Z,4.03
2018-07-15T06:36:50.978Z,2.83
2018-07-15T06:39:24.425Z,2.95
2018-07-15T06:41:57.911Z,2.80
2018-07-15T06:44:31.292Z,4.87
2018-07-15T06:47:04.716Z,4.72
2018-07-15T06:49:38.117Z,3.10
2018-07-15T06:52:11.518Z,3.20
2018-07-15T06:54:44.912Z,3.25
2018-07-15T06:57:18.333Z,4.42
2018-07-15T06:59:51.724Z,3.55
2018-07-15T07:02:25.189Z,3.33
2018-07-15T07:04:58.571Z,3.25
2018-07-15T07:07:32.022Z,8.13
2018-07-15T07:10:05.443Z,3.05
2018-07-15T07:12:39.534Z,2.62
2018-07-15T07:15:13.245Z,2.60
2018-07-15T07:17:46.961Z,2.92
2018-07-15T07:20:20.814Z,3.00
2018-07-15T07:22:54.297Z,3.58
2018-07-15T07:25:27.739Z,3.47
2018-07-15T07:28:01.144Z,2.25
2018-07-15T07:30:34.591Z,2.90
2018-07-15T07:33:08.011Z,2.75
2018-07-15T07:35:41.481Z,2.87
2018-07-15T07:38:14.890Z,2.45
2018-07-15T07:40:48.290Z,2.70
2018-07-15T07:43:21.669Z,3.17
2018-07-15T07:45:55.099Z,2.27
2018-07-15T07:48:28.475Z,2.40
2018-07-15T07:51:02.013Z,2.65
2018-07-15T07:53:35.428Z,2.80
2018-07-15T07:56:09.877Z,2.40
2018-07-15T07:58:43.259Z,2.00
2018-07-15T08:01:16.643Z,2.42
2018-07-15T08:03:50.063Z,2.85
2018-07-15T08:06:23.496Z,2.10
2018-07-15T08:08:56.900Z,2.25
2018-07-15T08:11:30.328Z,1.67
2018-07-15T08:14:04.584Z,2.70
2018-07-15T08:16:39.223Z,1.82
2018-07-15T08:19:13.380Z,1.82
2018-07-15T08:21:46.883Z,1.70
2018-07-15T08:24:20.273Z,1.70
2018-07-15T08:26:53.710Z,2.58
2018-07-15T08:29:27.068Z,1.75
2018-07-15T08:32:01.536Z,1.70
2018-07-15T08:34:35.105Z,3.83
2018-07-15T08:37:08.515Z,1.62
2018-07-15T08:39:41.897Z,1.80
2018-07-15T08:42:15.355Z,2.15
2018-07-15T08:44:48.834Z,1.82
2018-07-15T08:47:22.352Z,1.90
2018-07-15T08:49:55.731Z,2.15
2018-07-15T08:52:29.169Z,2.75
2018-07-15T08:55:02.660Z,1.60
2018-07-15T08:57:36.116Z,1.75
2018-07-15T09:00:09.539Z,1.47
2018-07-15T09:02:43.005Z,1.55
2018-07-15T09:05:16.401Z,1.62
2018-07-15T09:07:49.808Z,1.57
2018-07-15T09:10:23.230Z,1.82
2018-07-15T09:12:56.636Z,1.67
2018-07-15T09:15:30.054Z,1.62
2018-07-15T09:18:03.498Z,2.10
2018-07-15T09:20:37.033Z,1.87
2018-07-15T09:23:10.440Z,2.15
2018-07-15T09:25:43.841Z,2.25
2018-07-15T09:28:17.272Z,2.00
2018-07-15T09:30:50.698Z,2.15
2018-07-15T09:33:24.137Z,2.00
2018-07-15T09:35:57.594Z,2.02
2018-07-15T09:38:31.056Z,1.98
2018-07-15T09:41:04.520Z,1.85
2018-07-15T09:43:38.373Z,2.15
2018-07-15T09:46:13.475Z,2.67
2018-07-15T09:48:46.910Z,1.70
2018-07-15T09:51:20.311Z,1.80
2018-07-15T09:53:53.761Z,5.80
2018-07-15T09:56:27.223Z,1.72
2018-07-15T09:59:01.044Z,3.17
2018-07-15T10:01:34.423Z,1.87
2018-07-15T10:04:07.875Z,2.02
2018-07-15T10:06:41.259Z,1.87
2018-07-15T10:09:14.708Z,2.50
2018-07-15T10:11:48.147Z,2.10
2018-07-15T10:14:21.568Z,2.20
2018-07-15T10:16:55.384Z,1.80
2018-07-15T10:19:29.127Z,1.70
2018-07-15T10:22:02.590Z,1.98
2018-07-15T10:24:36.299Z,2.20
2018-07-15T10:27:15.185Z,1.77
2018-07-15T10:29:48.735Z,2.10
2018-07-15T10:32:22.675Z,3.47
2018-07-15T10:34:56.120Z,2.10
2018-07-15T10:37:30.905Z,5.40
2018-07-15T10:40:05.741Z,2.85
2018-07-15T10:42:39.711Z,2.10
2018-07-15T10:45:13.603Z,2.52
2018-07-15T10:47:47.162Z,3.00
2018-07-15T10:50:20.704Z,2.65
2018-07-15T10:52:54.174Z,1.70
2018-07-15T10:55:27.556Z,2.08
2018-07-15T10:58:00.946Z,2.40
2018-07-15T11:00:34.334Z,1.52
2018-07-15T11:03:08.828Z,2.10
2018-07-15T11:05:42.187Z,2.00
2018-07-15T11:08:15.685Z,2.33
2018-07-15T11:10:49.090Z,2.22
2018-07-15T11:13:22.551Z,2.20
2018-07-15T11:15:55.911Z,1.80
2018-07-15T11:18:29.313Z,2.20
2018-07-15T11:21:02.740Z,2.10
2018-07-15T11:23:36.153Z,3.12
2018-07-15T11:26:09.580Z,2.15
2018-07-15T11:28:42.973Z,2.05
2018-07-15T11:31:16.355Z,5.03
2018-07-15T11:33:49.783Z,2.87
2018-07-15T11:36:23.147Z,1.90
2018-07-15T11:38:56.770Z,1.87
2018-07-15T11:41:30.158Z,1.85
2018-07-15T11:44:03.888Z,4.42
2018-07-15T11:46:37.357Z,2.10
2018-07-15T11:49:10.775Z,1.90
2018-07-15T11:51:44.461Z,3.27
2018-07-15T11:54:17.858Z,2.02
2018-07-15T11:56:51.206Z,1.80
2018-07-15T11:59:24.603Z,1.92
2018-07-15T12:01:57.980Z,1.98
2018-07-15T12:04:31.367Z,1.95
2018-07-15T12:07:04.856Z,3.65
2018-07-15T12:09:38.241Z,1.98
2018-07-15T12:12:11.636Z,2.08
2018-07-15T12:14:45.084Z,1.98
2018-07-15T12:17:18.476Z,2.20
2018-07-15T12:19:51.947Z,1.95
2018-07-15T12:22:25.369Z,2.12
2018-07-15T12:24:58.947Z,4.20
2018-07-15T12:27:32.314Z,3.80
2018-07-15T12:30:05.812Z,3.77
2018-07-15T12:32:39.315Z,1.85
2018-07-15T12:35:12.689Z,2.58
2018-07-15T12:37:46.080Z,2.22
2018-07-15T12:40:19.501Z,1.80
2018-07-15T12:42:52.871Z,1.92
2018-07-15T12:45:26.593Z,3.27
2018-07-15T12:48:00.048Z,2.12
2018-07-15T12:50:33.467Z,3.22
2018-07-15T12:53:07.103Z,2.08
2018-07-15T12:55:40.756Z,1.85
2018-07-15T12:58:14.135Z,1.87
2018-07-15T13:00:47.577Z,2.87
2018-07-15T13:03:20.966Z,2.12
2018-07-15T13:05:54.773Z,1.67
2018-07-15T13:08:28.191Z,1.80
2018-07-15T13:11:10.499Z,2.05
2018-07-15T13:13:43.908Z,2.70
2018-07-15T13:16:17.379Z,1.70
2018-07-15T13:18:50.734Z,2.85
2018-07-15T13:21:24.130Z,2.05
2018-07-15T13:23:57.490Z,1.77
2018-07-15T13:26:30.912Z,2.00
2018-07-15T13:29:04.279Z,1.90
2018-07-15T13:31:37.684Z,1.67
2018-07-15T13:34:11.036Z,2.10
2018-07-15T13:36:44.431Z,1.77
2018-07-15T13:39:17.841Z,1.80
2018-07-15T13:41:51.339Z,2.10
2018-07-15T13:44:24.741Z,2.22
2018-07-15T13:46:58.115Z,1.90
2018-07-15T13:49:31.457Z,1.60
2018-07-15T13:52:04.872Z,1.77
2018-07-15T13:54:38.307Z,1.55
2018-07-15T13:57:11.687Z,1.90
2018-07-15T13:59:45.056Z,1.95
2018-07-15T14:02:18.442Z,2.00
2018-07-15T14:04:51.853Z,2.17
2018-07-15T14:07:25.278Z,2.00
2018-07-15T14:09:58.674Z,2.30
2018-07-15T14:12:32.078Z,3.05
2018-07-15T14:15:05.667Z,4.22
2018-07-15T14:17:39.584Z,3.58
2018-07-15T14:20:13.482Z,2.02
2018-07-15T14:22:46.878Z,2.10
2018-07-15T14:25:20.370Z,2.37
2018-07-15T14:27:54.027Z,2.33
2018-07-15T14:30:27.686Z,2.25
2018-07-15T14:33:01.087Z,2.42
2018-07-15T14:35:34.667Z,1.92
2018-07-15T14:38:08.614Z,2.12
2018-07-15T14:40:42.020Z,2.27
2018-07-15T14:43:15.400Z,1.95
2018-07-15T14:45:48.806Z,2.10
2018-07-15T14:48:22.217Z,2.20
2018-07-15T14:50:55.697Z,3.60
2018-07-15T14:53:29.069Z,2.15
2018-07-15T14:56:02.506Z,2.17
2018-07-15T14:58:36.374Z,3.22
2018-07-15T15:01:10.300Z,2.33
2018-07-15T15:03:43.669Z,2.05
2018-07-15T15:06:17.060Z,2.15
2018-07-15T15:08:50.460Z,2.08
2018-07-15T15:11:23.899Z,2.25
2018-07-15T15:13:57.256Z,2.45
2018-07-15T15:16:30.682Z,2.62
2018-07-15T15:19:04.043Z,2.25
2018-07-15T15:21:37.423Z,3.02
2018-07-15T15:24:10.803Z,2.45
2018-07-15T15:26:44.190Z,3.10
2018-07-15T15:29:17.585Z,3.58
2018-07-15T15:31:50.986Z,3.25
2018-07-15T15:34:24.403Z,2.60
2018-07-15T15:36:57.790Z,2.95
2018-07-15T15:39:31.156Z,3.70
2018-07-15T15:42:04.652Z,2.83
2018-07-15T15:44:38.025Z,2.75
2018-07-15T15:47:11.488Z,2.67
2018-07-15T15:49:44.875Z,2.95
2018-07-15T15:52:18.274Z,2.60
2018-07-15T15:54:51.668Z,3.72
2018-07-15T15:57:25.081Z,2.47
2018-07-15T15:59:59.933Z,2.92
2018-07-15T16:02:33.356Z,2.65
2018-07-15T16:05:07.267Z,3.08
2018-07-15T16:07:40.716Z,2.98
2018-07-15T16:10:14.120Z,2.67
2018-07-15T16:12:47.512Z,2.40
2018-07-15T16:15:20.948Z,2.33
2018-07-15T16:17:54.353Z,2.65
2018-07-15T16:20:27.722Z,2.52
2018-07-15T16:23:01.123Z,2.85
2018-07-15T16:25:34.511Z,2.40
2018-07-15T16:28:07.919Z,3.30
2018-07-15T16:30:41.306Z,2.42
2018-07-15T16:33:14.701Z,2.92
2018-07-15T16:35:48.424Z,5.08
2018-07-15T16:38:22.103Z,6.97
2018-07-15T16:40:55.476Z,4.17
2018-07-15T16:43:28.883Z,3.17
2018-07-15T16:46:02.292Z,2.60
2018-07-15T16:48:35.674Z,2.83
2018-07-15T16:51:09.115Z,2.98
2018-07-15T16:53:42.559Z,2.87
2018-07-15T16:56:16.014Z,3.10
2018-07-15T16:58:49.364Z,2.65
2018-07-15T17:01:25.485Z,2.60
2018-07-15T17:03:58.851Z,2.80
2018-07-15T17:06:32.220Z,2.70
2018-07-15T17:09:06.333Z,3.27
2018-07-15T17:11:40.367Z,3.55
2018-07-15T17:14:13.784Z,2.60
2018-07-15T17:16:47.186Z,2.98
2018-07-15T17:19:20.588Z,2.77
2018-07-15T17:21:54.028Z,2.92
2018-07-15T17:24:27.421Z,2.87
2018-07-15T17:27:00.882Z,3.25
2018-07-15T17:29:34.280Z,2.65
2018-07-15T17:32:07.767Z,2.45
2018-07-15T17:34:41.155Z,2.75
2018-07-15T17:37:14.548Z,2.98
2018-07-15T17:39:47.954Z,2.90
2018-07-15T17:42:21.363Z,3.08
2018-07-15T17:44:54.776Z,2.85
2018-07-15T17:47:28.159Z,2.85
2018-07-15T17:50:01.582Z,4.17
2018-07-15T17:52:34.988Z,2.60
2018-07-15T17:55:09.034Z,2.75
2018-07-15T17:57:42.567Z,4.35
2018-07-15T18:00:17.343Z,2.75
2018-07-15T18:02:51.046Z,2.60
2018-07-15T18:05:24.611Z,2.92
2018-07-15T18:07:58.658Z,2.58
2018-07-15T18:10:32.749Z,2.90
2018-07-15T18:13:06.324Z,3.00
2018-07-15T18:15:39.776Z,2.50
2018-07-15T18:18:13.589Z,2.60
2018-07-15T18:20:48.103Z,2.40
2018-07-15T18:23:22.361Z,5.40
2018-07-15T18:25:56.087Z,2.62
2018-07-15T18:28:29.491Z,2.77
2018-07-15T18:31:02.856Z,3.02
2018-07-15T18:33:37.317Z,2.70
2018-07-15T18:36:12.308Z,2.90
2018-07-15T18:38:47.129Z,3.10
2018-07-15T18:41:20.549Z,3.08
2018-07-15T18:43:54.213Z,2.87
2018-07-15T18:46:27.671Z,2.95
2018-07-15T18:49:01.689Z,3.20
2018-07-15T18:51:37.986Z,4.53
2018-07-15T18:54:11.438Z,3.30
2018-07-15T18:56:44.883Z,2.90
2018-07-15T18:59:19.122Z,2.92
2018-07-15T19:01:53.075Z,4.37
2018-07-15T19:04:26.708Z,2.70
2018-07-15T19:07:00.116Z,3.47
2018-07-15T19:09:33.552Z,3.40
2018-07-15T19:12:07.009Z,3.20
2018-07-15T19:14:41.090Z,3.62
2018-07-15T19:17:16.875Z,3.25
2018-07-15T19:19:50.319Z,3.15
2018-07-15T19:22:24.217Z,3.20
2018-07-15T19:24:57.866Z,3.12
2018-07-15T19:27:31.583Z,3.33
2018-07-15T19:30:06.600Z,3.10
2018-07-15T19:32:40.176Z,3.17
2018-07-15T19:35:14.544Z,3.20
2018-07-15T19:37:49.857Z,3.72
2018-07-15T19:40:23.583Z,3.30
2018-07-15T19:42:57.668Z,3.12
2018-07-15T19:45:31.283Z,3.45
2018-07-15T19:48:04.757Z,3.70
2018-07-15T19:50:38.205Z,3.50
2018-07-15T19:53:11.679Z,3.70
2018-07-15T19:55:51.404Z,3.40
2018-07-15T19:58:24.797Z,3.80
2018-07-15T20:00:58.334Z,3.55
2018-07-15T20:03:31.790Z,3.67
2018-07-15T20:06:05.510Z,3.87
2018-07-15T20:08:39.063Z,3.80
2018-07-15T20:11:12.500Z,4.78
2018-07-15T20:13:45.984Z,4.22
2018-07-15T20:16:19.688Z,4.17
2018-07-15T20:18:53.148Z,4.05
2018-07-15T20:21:26.640Z,4.30
2018-07-15T20:24:00.135Z,3.90
2018-07-15T20:26:33.616Z,4.40
2018-07-15T20:29:07.109Z,4.33
2018-07-15T20:31:40.531Z,4.12
2018-07-15T20:34:14.010Z,4.22
2018-07-15T20:36:47.375Z,4.62
2018-07-15T20:39:20.819Z,3.90
2018-07-15T20:41:54.207Z,3.92
2018-07-15T20:44:27.731Z,4.70
2018-07-15T20:47:01.227Z,4.78
2018-07-15T20:49:34.792Z,4.58
2018-07-15T20:52:08.310Z,4.60
2018-07-15T20:54:41.733Z,4.62
2018-07-15T20:57:15.270Z,4.55
2018-07-15T20:59:48.677Z,3.98
2018-07-15T21:02:22.153Z,4.20
2018-07-15T21:04:55.607Z,4.25
2018-07-15T21:07:29.012Z,4.97
2018-07-15T21:10:02.438Z,4.65
2018-07-15T21:12:35.844Z,4.70
2018-07-15T21:15:09.311Z,4.95
2018-07-15T21:17:42.737Z,4.83
2018-07-15T21:20:16.320Z,5.20
2018-07-15T21:22:49.708Z,4.30
2018-07-15T21:25:23.160Z,4.30
2018-07-15T21:27:56.572Z,4.67
2018-07-15T21:30:30.021Z,4.25
2018-07-15T21:33:03.411Z,4.58
2018-07-15T21:35:36.843Z,4.62
2018-07-15T21:38:10.235Z,4.22
2018-07-15T21:40:43.625Z,5.17
2018-07-15T21:43:16.991Z,8.28
2018-07-15T21:45:50.391Z,4.80
2018-07-15T21:48:23.793Z,5.00
2018-07-15T21:50:57.203Z,5.12
2018-07-15T21:53:30.622Z,5.28
2018-07-15T21:56:04.072Z,6.65
2018-07-15T21:58:37.488Z,4.85
2018-07-15T22:01:10.923Z,4.45
2018-07-15T22:03:44.347Z,4.65
2018-07-15T22:06:29.005Z,4.95
2018-07-15T22:09:13.583Z,5.45
2018-07-15T22:11:46.981Z,4.58
2018-07-15T22:14:20.658Z,5.60
2018-07-15T22:16:54.144Z,5.08
2018-07-15T22:19:27.558Z,4.72
2018-07-15T22:22:00.955Z,5.67
2018-07-15T22:24:34.333Z,5.08
2018-07-15T22:27:07.832Z,4.83
2018-07-15T22:29:41.204Z,5.70
2018-07-15T22:32:14.768Z,4.97
2018-07-15T22:34:48.182Z,4.92
2018-07-15T22:37:21.572Z,4.92
2018-07-15T22:39:54.929Z,5.65
2018-07-15T22:42:28.354Z,4.62
2018-07-15T22:45:01.748Z,5.20
2018-07-15T22:47:35.274Z,5.30
2018-07-15T22:50:08.692Z,5.25
2018-07-15T22:52:42.096Z,5.42
2018-07-15T22:55:15.491Z,6.03
2018-07-15T22:57:48.917Z,6.03
2018-07-15T23:00:22.289Z,5.80
2018-07-15T23:02:55.707Z,6.40
2018-07-15T23:05:45.549Z,6.58
2018-07-15T23:08:18.948Z,5.35
2018-07-15T23:10:52.406Z,6.12
2018-07-15T23:13:25.796Z,5.67
2018-07-15T23:15:59.172Z,5.83
2018-07-15T23:18:32.557Z,5.53
2018-07-15T23:21:05.989Z,7.08
2018-07-15T23:23:39.340Z,6.00
2018-07-15T23:26:12.707Z,5.65
2018-07-15T23:28:46.088Z,5.97
2018-07-15T23:31:19.478Z,5.92
2018-07-15T23:33:52.887Z,5.97
2018-07-15T23:36:26.291Z,5.87
2018-07-15T23:38:59.694Z,5.90
2018-07-15T23:41:33.088Z,5.67
2018-07-15T23:44:06.537Z,6.10
2018-07-15T23:46:39.909Z,5.83
2018-07-15T23:49:13.282Z,5.97
2018-07-15T23:51:46.689Z,5.67
2018-07-15T23:54:20.065Z,5.47
2018-07-15T23:56:53.492Z,5.97
2018-07-15T23:59:26.890Z,5.78
